Arklow Bay — PBPI — position and weather

sailwx.info

Track history (hours):
 
Tides and Currents Weather Stations Pressure Air Temp Water Temp Dewpoint Dewpoint Depression Visibility Wind Speed Wind Dir Waves Ship Positions

Arklow Bay

Last reported at 2018-Jan-23 03:59 UTC. Time now 2018-Jan-23 04:13 UTC.
Position N 51°09' E 003°47'.

Length 119 m; draft 7.3 m.

Type: Cargo ship. MMSI: 244700336.

Date/timePositionNaut miles runAvg speedWind from/ knotsBaromVisibWave heightAir tempDewpointWater temp
2018-Jan-23 03:59N 51°09' E 003°47'0 0.1
2018-Jan-23 03:30N 51°09' E 003°47'3 6.6
2018-Jan-23 03:00N 51°13' E 003°48'4 8.8
2018-Jan-23 02:30N 51°17' E 003°50'3 6.2
2018-Jan-23 02:00N 51°20' E 003°49'0 0.7
2018-Jan-23 01:30N 51°20' E 003°49'0 0.4
2018-Jan-23 01:00N 51°20' E 003°49'1 1.5
2018-Jan-23 00:30N 51°21' E 003°48'5 9.4
2018-Jan-23 00:00N 51°24' E 003°43'5 9.4
2018-Jan-22 23:30N 51°26' E 003°36'4 7.3
2018-Jan-22 22:59N 51°25' E 003°29'510.3
2018-Jan-22 22:30N 51°24' E 003°22'5 9.4
2018-Jan-22 22:01N 51°24' E 003°14'5 9.9
2018-Jan-22 21:31N 51°24' E 003°06'510.0
2018-Jan-22 21:00N 51°23' E 002°58'511.1
2018-Jan-22 20:30N 51°22' E 002°50'5 9.0
2018-Jan-22 19:54N 51°21' E 002°41'3 5.8
2018-Jan-22 19:23N 51°21' E 002°36'2 4.2
2018-Jan-22 18:58N 51°22' E 002°34'4 8.2
2018-Jan-22 18:30N 51°21' E 002°27'611.8
2018-Jan-22 18:00N 51°18' E 002°19'612.5
2018-Jan-22 17:30N 51°15' E 002°11'713.2
2018-Jan-22 17:01N 51°11' E 002°02'713.6
2018-Jan-22 16:30N 51°08' E 001°53'713.3
2018-Jan-22 16:00N 51°03' E 001°45'4 8.8
2018-Jan-22 15:31N 51°02' E 001°52'5 8.7
2018-Jan-22 14:59N 51°02' E 001°59'4 9.0
2018-Jan-22 14:30N 51°03' E 002°06'4 7.6
2018-Jan-22 13:59N 51°00' E 002°11'0 0.1
2018-Jan-22 13:27N 51°00' E 002°11'0 0.0
2018-Jan-22 12:53N 51°00' E 002°11'0 0.0
2018-Jan-22 12:30N 51°00' E 002°11'0 0.0
2018-Jan-22 11:57N 51°00' E 002°11'0 0.0
2018-Jan-22 11:28N 51°00' E 002°11'0 0.0
2018-Jan-22 10:49N 51°00' E 002°11'0 0.0
2018-Jan-22 10:28N 51°00' E 002°11'0 0.0
2018-Jan-22 09:58N 51°00' E 002°11'0 0.0
2018-Jan-22 09:28N 51°00' E 002°11'0 0.0
2018-Jan-22 08:58N 51°00' E 002°11'0 0.0
2018-Jan-22 08:28N 51°00' E 002°11'0 0.0
2018-Jan-22 08:00N 51°00' E 002°11'0 0.0
2018-Jan-22 07:28N 51°00' E 002°11'0 0.0
2018-Jan-22 06:57N 51°00' E 002°11'0 0.0
2018-Jan-22 06:31N 51°00' E 002°11'0 0.0
2018-Jan-22 05:51N 51°00' E 002°11'0 0.0
2018-Jan-22 05:27N 51°00' E 002°11'0 0.0
2018-Jan-22 04:57N 51°00' E 002°11'0 0.0
2018-Jan-22 04:30N 51°00' E 002°11'0 0.0
2018-Jan-22 03:57N 51°00' E 002°11'0 0.0
2018-Jan-22 03:18N 51°00' E 002°11'0 0.0
2018-Jan-22 03:00N 51°00' E 002°11'0 0.0
2018-Jan-22 02:26N 51°00' E 002°11'0 0.0
2018-Jan-22 02:00N 51°00' E 002°11'0 0.0
2018-Jan-22 01:17N 51°00' E 002°11'0 0.0
2018-Jan-22 00:56N 51°00' E 002°11'0 0.0
2018-Jan-22 00:28N 51°00' E 002°11'0 0.0
2018-Jan-21 23:49N 51°00' E 002°11'0 0.0
2018-Jan-21 23:28N 51°00' E 002°11'0 0.0
2018-Jan-21 23:00N 51°00' E 002°11'0 0.3
2018-Jan-21 22:29N 51°00' E 002°11'4 7.5
2018-Jan-21 22:00N 51°03' E 002°07'611.4
2018-Jan-21 21:30N 51°02' E 001°58'510.0
2018-Jan-21 21:00N 51°02' E 001°50'4 8.1
2018-Jan-21 20:30N 51°04' E 001°44'510.9
2018-Jan-21 20:00N 51°09' E 001°41'712.8
2018-Jan-21 19:30N 51°14' E 001°47'611.7
2018-Jan-21 19:01N 51°19' E 001°52'611.1
2018-Jan-21 18:30N 51°24' E 001°56'510.9
2018-Jan-21 18:00N 51°28' E 002°01'510.8
2018-Jan-21 17:30N 51°32' E 002°07'610.7
2018-Jan-21 16:59N 51°36' E 002°13'810.8
2018-Jan-21 16:14N 51°42' E 002°22'11212.9
2018-Jan-21 07:30N 53°08' E 004°20'1811.2
2018-Jan-21 05:54N 53°24' E 004°35'511.2
2018-Jan-21 05:26N 53°28' E 004°39'512.0
2018-Jan-21 05:00N 53°30' E 004°47'612.6
2018-Jan-21 04:30N 53°33' E 004°57'612.6
2018-Jan-21 04:00N 53°35' E 005°07'712.5
2018-Jan-21 03:29N 53°37' E 005°18'8711.9
2018-Jan-20 20:14N 54°01' E 007°38'312.7
2018-Jan-20 20:00N 54°02' E 007°43'713.1
2018-Jan-20 19:30N 54°02' E 007°54'713.3
2018-Jan-20 19:00N 54°01' E 008°06'612.5
2018-Jan-20 18:30N 54°00' E 008°16'713.0
2018-Jan-20 18:00N 53°59' E 008°27'815.8
2018-Jan-20 17:30N 53°56' E 008°40'714.9
2018-Jan-20 17:00N 53°51' E 008°48'713.9
2018-Jan-20 16:30N 53°51' E 008°60'611.8
2018-Jan-20 16:00N 53°53' E 009°09'510.5
2018-Jan-20 15:30N 53°52' E 009°18'511.1
2018-Jan-20 15:00N 53°47' E 009°23'510.5
2018-Jan-20 14:30N 53°43' E 009°29'510.7
2018-Jan-20 14:00N 53°38' E 009°32'510.5
2018-Jan-20 13:31N 53°35' E 009°38'5 9.2
2018-Jan-20 13:00N 53°34' E 009°46'5 9.4
2018-Jan-20 12:30N 53°33' E 009°54'2 4.3
2018-Jan-20 12:01N 53°31' E 009°56'0 0.2
2018-Jan-20 11:30N 53°31' E 009°56'0 0.0
2018-Jan-20 11:00N 53°31' E 009°56'0 0.0
2018-Jan-20 10:30N 53°31' E 009°56'0 0.0
2018-Jan-20 10:00N 53°31' E 009°56'0 0.0
2018-Jan-20 09:30N 53°31' E 009°56'0 0.0
2018-Jan-20 09:00N 53°31' E 009°56'0 0.0
2018-Jan-20 08:30N 53°31' E 009°56'0 0.0
2018-Jan-20 08:00N 53°31' E 009°56'0 0.0
2018-Jan-20 07:30N 53°31' E 009°56'0 0.0
2018-Jan-20 07:00N 53°31' E 009°56'0 0.0
2018-Jan-20 06:30N 53°31' E 009°56'0 0.0
2018-Jan-20 06:00N 53°31' E 009°56'0 0.0
2018-Jan-20 05:27N 53°31' E 009°56'0 0.0
2018-Jan-20 05:00N 53°31' E 009°56'0 0.0
2018-Jan-20 04:30N 53°31' E 009°56'0 0.0
2018-Jan-20 04:00N 53°31' E 009°56'0 0.0
2018-Jan-20 03:30N 53°31' E 009°56'0 0.0
2018-Jan-20 03:00N 53°31' E 009°56'0 0.0
2018-Jan-20 02:30N 53°31' E 009°56'0 0.0
2018-Jan-20 02:00N 53°31' E 009°56'0 0.0
2018-Jan-20 01:30N 53°31' E 009°56'0 0.0
2018-Jan-20 01:00N 53°31' E 009°56'0 0.0
2018-Jan-20 00:30N 53°31' E 009°56'1 1.2
2018-Jan-20 00:00N 53°32' E 009°56'4 7.8
2018-Jan-19 23:30N 53°33' E 009°50'4 8.0
2018-Jan-19 23:00N 53°34' E 009°44'4 8.8
2018-Jan-19 22:30N 53°35' E 009°37'5 9.4
2018-Jan-19 22:00N 53°39' E 009°31'5 9.4
2018-Jan-19 21:30N 53°43' E 009°28'4 8.8
2018-Jan-19 21:00N 53°46' E 009°23'4 8.7
2018-Jan-19 20:30N 53°50' E 009°20'4 8.6
2018-Jan-19 20:00N 53°53' E 009°14'4 7.9
2018-Jan-19 19:30N 53°53' E 009°07'4 7.9
2018-Jan-19 19:01N 53°51' E 009°01'4 8.0
2018-Jan-19 18:30N 53°50' E 008°54'4 7.9
2018-Jan-19 18:00N 53°50' E 008°48'4 7.4
2018-Jan-19 17:30N 53°53' E 008°43'4 8.0
2018-Jan-19 17:00N 53°56' E 008°39'4 8.0
2018-Jan-19 16:30N 53°58' E 008°33'5 9.1
2018-Jan-19 16:00N 53°59' E 008°26'510.1
2018-Jan-19 15:30N 53°60' E 008°17'7 8.7
2018-Jan-19 14:44N 53°59' E 008°06'2 7.7
2018-Jan-19 14:28N 53°59' E 008°02'9310.6
2018-Jan-19 05:40N 53°34' E 005°30'211.7
2018-Jan-19 05:30N 53°34' E 005°27'611.3
2018-Jan-19 04:59N 53°32' E 005°18'611.2
2018-Jan-19 04:30N 53°30' E 005°09'511.0
2018-Jan-19 04:00N 53°28' E 005°01'510.7
2018-Jan-19 03:30N 53°26' E 004°53'510.5
2018-Jan-19 03:00N 53°24' E 004°45'14210.3
2018-Jan-18 13:10N 51°32' E 002°21'211.7
2018-Jan-18 12:59N 51°31' E 002°18'511.1
2018-Jan-18 12:30N 51°26' E 002°14'611.2
2018-Jan-18 12:00N 51°21' E 002°10'611.2
2018-Jan-18 11:31N 51°16' E 002°06'611.3
2018-Jan-18 11:00N 51°12' E 001°60'611.6
2018-Jan-18 10:30N 51°08' E 001°52'611.5
2018-Jan-18 10:00N 51°05' E 001°45'611.3
2018-Jan-18 09:30N 51°01' E 001°39'611.0
2018-Jan-18 09:00N 50°57' E 001°33'510.4
2018-Jan-18 08:30N 50°52' E 001°28'510.0
2018-Jan-18 08:00N 50°48' E 001°24'26 9.5
2018-Jan-18 05:12N 50°31' E 000°53'210.2
2018-Jan-18 04:58N 50°30' E 000°49'610.0
2018-Jan-18 04:24N 50°28' E 000°40'4 9.9
2018-Jan-18 03:59N 50°27' E 000°34'6 9.8
2018-Jan-18 03:21N 50°25' E 000°25'3 9.8
2018-Jan-18 03:00N 50°24' E 000°20'5 9.8
2018-Jan-18 02:30N 50°23' E 000°12'5 9.8
2018-Jan-18 02:00N 50°22' E 000°05'510.1
2018-Jan-18 01:29N 50°20' W 000°03'610.2
2018-Jan-18 00:54N 50°19' W 000°12'  
Track history (hours):
 
Tides and Currents Weather Stations Pressure Air Temp Water Temp Dewpoint Dewpoint Depression Visibility Wind Speed Wind Dir Waves Ship Positions

Arklow Bay

Last reported at 2018-Jan-23 03:59 UTC. Time now 2018-Jan-23 04:13 UTC.
Position N 51°09' E 003°47'.

Length 119 m; draft 7.3 m.

Type: Cargo ship. MMSI: 244700336.

Date/timePositionNaut miles runAvg speedWind from/ knotsBaromVisibWave heightAir tempDewpointWater temp
2018-Jan-23 03:59N 51°09' E 003°47'0 0.1
2018-Jan-23 03:30N 51°09' E 003°47'3 6.6
2018-Jan-23 03:00N 51°13' E 003°48'4 8.8
2018-Jan-23 02:30N 51°17' E 003°50'3 6.2
2018-Jan-23 02:00N 51°20' E 003°49'0 0.7
2018-Jan-23 01:30N 51°20' E 003°49'0 0.4
2018-Jan-23 01:00N 51°20' E 003°49'1 1.5
2018-Jan-23 00:30N 51°21' E 003°48'5 9.4
2018-Jan-23 00:00N 51°24' E 003°43'5 9.4
2018-Jan-22 23:30N 51°26' E 003°36'4 7.3
2018-Jan-22 22:59N 51°25' E 003°29'510.3
2018-Jan-22 22:30N 51°24' E 003°22'5 9.4
2018-Jan-22 22:01N 51°24' E 003°14'5 9.9
2018-Jan-22 21:31N 51°24' E 003°06'510.0
2018-Jan-22 21:00N 51°23' E 002°58'511.1
2018-Jan-22 20:30N 51°22' E 002°50'5 9.0
2018-Jan-22 19:54N 51°21' E 002°41'3 5.8
2018-Jan-22 19:23N 51°21' E 002°36'2 4.2
2018-Jan-22 18:58N 51°22' E 002°34'4 8.2
2018-Jan-22 18:30N 51°21' E 002°27'611.8
2018-Jan-22 18:00N 51°18' E 002°19'612.5
2018-Jan-22 17:30N 51°15' E 002°11'713.2
2018-Jan-22 17:01N 51°11' E 002°02'713.6
2018-Jan-22 16:30N 51°08' E 001°53'713.3
2018-Jan-22 16:00N 51°03' E 001°45'4 8.8
2018-Jan-22 15:31N 51°02' E 001°52'5 8.7
2018-Jan-22 14:59N 51°02' E 001°59'4 9.0
2018-Jan-22 14:30N 51°03' E 002°06'4 7.6
2018-Jan-22 13:59N 51°00' E 002°11'0 0.1
2018-Jan-22 13:27N 51°00' E 002°11'0 0.0
2018-Jan-22 12:53N 51°00' E 002°11'0 0.0
2018-Jan-22 12:30N 51°00' E 002°11'0 0.0
2018-Jan-22 11:57N 51°00' E 002°11'0 0.0
2018-Jan-22 11:28N 51°00' E 002°11'0 0.0
2018-Jan-22 10:49N 51°00' E 002°11'0 0.0
2018-Jan-22 10:28N 51°00' E 002°11'0 0.0
2018-Jan-22 09:58N 51°00' E 002°11'0 0.0
2018-Jan-22 09:28N 51°00' E 002°11'0 0.0
2018-Jan-22 08:58N 51°00' E 002°11'0 0.0
2018-Jan-22 08:28N 51°00' E 002°11'0 0.0
2018-Jan-22 08:00N 51°00' E 002°11'0 0.0
2018-Jan-22 07:28N 51°00' E 002°11'0 0.0
2018-Jan-22 06:57N 51°00' E 002°11'0 0.0
2018-Jan-22 06:31N 51°00' E 002°11'0 0.0
2018-Jan-22 05:51N 51°00' E 002°11'0 0.0
2018-Jan-22 05:27N 51°00' E 002°11'0 0.0
2018-Jan-22 04:57N 51°00' E 002°11'0 0.0
2018-Jan-22 04:30N 51°00' E 002°11'0 0.0
2018-Jan-22 03:57N 51°00' E 002°11'0 0.0
2018-Jan-22 03:18N 51°00' E 002°11'0 0.0
2018-Jan-22 03:00N 51°00' E 002°11'0 0.0
2018-Jan-22 02:26N 51°00' E 002°11'0 0.0
2018-Jan-22 02:00N 51°00' E 002°11'0 0.0
2018-Jan-22 01:17N 51°00' E 002°11'0 0.0
2018-Jan-22 00:56N 51°00' E 002°11'0 0.0
2018-Jan-22 00:28N 51°00' E 002°11'0 0.0
2018-Jan-21 23:49N 51°00' E 002°11'0 0.0
2018-Jan-21 23:28N 51°00' E 002°11'0 0.0
2018-Jan-21 23:00N 51°00' E 002°11'0 0.3
2018-Jan-21 22:29N 51°00' E 002°11'4 7.5
2018-Jan-21 22:00N 51°03' E 002°07'611.4
2018-Jan-21 21:30N 51°02' E 001°58'510.0
2018-Jan-21 21:00N 51°02' E 001°50'4 8.1
2018-Jan-21 20:30N 51°04' E 001°44'510.9
2018-Jan-21 20:00N 51°09' E 001°41'712.8
2018-Jan-21 19:30N 51°14' E 001°47'611.7
2018-Jan-21 19:01N 51°19' E 001°52'611.1
2018-Jan-21 18:30N 51°24' E 001°56'510.9
2018-Jan-21 18:00N 51°28' E 002°01'510.8
2018-Jan-21 17:30N 51°32' E 002°07'610.7
2018-Jan-21 16:59N 51°36' E 002°13'810.8
2018-Jan-21 16:14N 51°42' E 002°22'11212.9
2018-Jan-21 07:30N 53°08' E 004°20'1811.2
2018-Jan-21 05:54N 53°24' E 004°35'511.2
2018-Jan-21 05:26N 53°28' E 004°39'512.0
2018-Jan-21 05:00N 53°30' E 004°47'612.6
2018-Jan-21 04:30N 53°33' E 004°57'612.6
2018-Jan-21 04:00N 53°35' E 005°07'712.5
2018-Jan-21 03:29N 53°37' E 005°18'8711.9
2018-Jan-20 20:14N 54°01' E 007°38'312.7
2018-Jan-20 20:00N 54°02' E 007°43'713.1
2018-Jan-20 19:30N 54°02' E 007°54'713.3
2018-Jan-20 19:00N 54°01' E 008°06'612.5
2018-Jan-20 18:30N 54°00' E 008°16'713.0
2018-Jan-20 18:00N 53°59' E 008°27'815.8
2018-Jan-20 17:30N 53°56' E 008°40'714.9
2018-Jan-20 17:00N 53°51' E 008°48'713.9
2018-Jan-20 16:30N 53°51' E 008°60'611.8
2018-Jan-20 16:00N 53°53' E 009°09'510.5
2018-Jan-20 15:30N 53°52' E 009°18'511.1
2018-Jan-20 15:00N 53°47' E 009°23'510.5
2018-Jan-20 14:30N 53°43' E 009°29'510.7
2018-Jan-20 14:00N 53°38' E 009°32'510.5
2018-Jan-20 13:31N 53°35' E 009°38'5 9.2
2018-Jan-20 13:00N 53°34' E 009°46'5 9.4
2018-Jan-20 12:30N 53°33' E 009°54'2 4.3
2018-Jan-20 12:01N 53°31' E 009°56'0 0.2
2018-Jan-20 11:30N 53°31' E 009°56'0 0.0
2018-Jan-20 11:00N 53°31' E 009°56'0 0.0
2018-Jan-20 10:30N 53°31' E 009°56'0 0.0
2018-Jan-20 10:00N 53°31' E 009°56'0 0.0
2018-Jan-20 09:30N 53°31' E 009°56'0 0.0
2018-Jan-20 09:00N 53°31' E 009°56'0 0.0
2018-Jan-20 08:30N 53°31' E 009°56'0 0.0
2018-Jan-20 08:00N 53°31' E 009°56'0 0.0
2018-Jan-20 07:30N 53°31' E 009°56'0 0.0
2018-Jan-20 07:00N 53°31' E 009°56'0 0.0
2018-Jan-20 06:30N 53°31' E 009°56'0 0.0
2018-Jan-20 06:00N 53°31' E 009°56'0 0.0
2018-Jan-20 05:27N 53°31' E 009°56'0 0.0
2018-Jan-20 05:00N 53°31' E 009°56'0 0.0
2018-Jan-20 04:30N 53°31' E 009°56'0 0.0
2018-Jan-20 04:00N 53°31' E 009°56'0 0.0
2018-Jan-20 03:30N 53°31' E 009°56'0 0.0
2018-Jan-20 03:00N 53°31' E 009°56'0 0.0
2018-Jan-20 02:30N 53°31' E 009°56'0 0.0
2018-Jan-20 02:00N 53°31' E 009°56'0 0.0
2018-Jan-20 01:30N 53°31' E 009°56'0 0.0
2018-Jan-20 01:00N 53°31' E 009°56'0 0.0
2018-Jan-20 00:30N 53°31' E 009°56'1 1.2
2018-Jan-20 00:00N 53°32' E 009°56'4 7.8
2018-Jan-19 23:30N 53°33' E 009°50'4 8.0
2018-Jan-19 23:00N 53°34' E 009°44'4 8.8
2018-Jan-19 22:30N 53°35' E 009°37'5 9.4
2018-Jan-19 22:00N 53°39' E 009°31'5 9.4
2018-Jan-19 21:30N 53°43' E 009°28'4 8.8
2018-Jan-19 21:00N 53°46' E 009°23'4 8.7
2018-Jan-19 20:30N 53°50' E 009°20'4 8.6
2018-Jan-19 20:00N 53°53' E 009°14'4 7.9
2018-Jan-19 19:30N 53°53' E 009°07'4 7.9
2018-Jan-19 19:01N 53°51' E 009°01'4 8.0
2018-Jan-19 18:30N 53°50' E 008°54'4 7.9
2018-Jan-19 18:00N 53°50' E 008°48'4 7.4
2018-Jan-19 17:30N 53°53' E 008°43'4 8.0
2018-Jan-19 17:00N 53°56' E 008°39'4 8.0
2018-Jan-19 16:30N 53°58' E 008°33'5 9.1
2018-Jan-19 16:00N 53°59' E 008°26'510.1
2018-Jan-19 15:30N 53°60' E 008°17'7 8.7
2018-Jan-19 14:44N 53°59' E 008°06'2 7.7
2018-Jan-19 14:28N 53°59' E 008°02'9310.6
2018-Jan-19 05:40N 53°34' E 005°30'211.7
2018-Jan-19 05:30N 53°34' E 005°27'611.3
2018-Jan-19 04:59N 53°32' E 005°18'611.2
2018-Jan-19 04:30N 53°30' E 005°09'511.0
2018-Jan-19 04:00N 53°28' E 005°01'510.7
2018-Jan-19 03:30N 53°26' E 004°53'510.5
2018-Jan-19 03:00N 53°24' E 004°45'14210.3
2018-Jan-18 13:10N 51°32' E 002°21'211.7
2018-Jan-18 12:59N 51°31' E 002°18'511.1
2018-Jan-18 12:30N 51°26' E 002°14'611.2
2018-Jan-18 12:00N 51°21' E 002°10'611.2
2018-Jan-18 11:31N 51°16' E 002°06'611.3
2018-Jan-18 11:00N 51°12' E 001°60'611.6
2018-Jan-18 10:30N 51°08' E 001°52'611.5
2018-Jan-18 10:00N 51°05' E 001°45'611.3
2018-Jan-18 09:30N 51°01' E 001°39'611.0
2018-Jan-18 09:00N 50°57' E 001°33'510.4
2018-Jan-18 08:30N 50°52' E 001°28'510.0
2018-Jan-18 08:00N 50°48' E 001°24'26 9.5
2018-Jan-18 05:12N 50°31' E 000°53'210.2
2018-Jan-18 04:58N 50°30' E 000°49'610.0
2018-Jan-18 04:24N 50°28' E 000°40'4 9.9
2018-Jan-18 03:59N 50°27' E 000°34'6 9.8
2018-Jan-18 03:21N 50°25' E 000°25'3 9.8
2018-Jan-18 03:00N 50°24' E 000°20'5 9.8
2018-Jan-18 02:30N 50°23' E 000°12'5 9.8
2018-Jan-18 02:00N 50°22' E 000°05'510.1
2018-Jan-18 01:29N 50°20' W 000°03'610.2
2018-Jan-18 00:54N 50°19' W 000°12'  

Dump ship's entire track history